sensor_id;sensor_type;location;lat;lon;timestamp;P1;durP1;ratioP1;P2;durP2;ratioP2
7460;SDS011;6757;52.258;12.840;2023-06-22T00:01:17;14.63;;;5.50;;
7460;SDS011;6757;52.258;12.840;2023-06-22T00:03:44;13.85;;;5.45;;
7460;SDS011;6757;52.258;12.840;2023-06-22T00:06:13;12.25;;;5.07;;
7460;SDS011;6757;52.258;12.840;2023-06-22T00:08:40;14.82;;;5.65;;
7460;SDS011;6757;52.258;12.840;2023-06-22T00:11:07;12.82;;;4.95;;
7460;SDS011;6757;52.258;12.840;2023-06-22T00:13:34;12.00;;;4.93;;
7460;SDS011;6757;52.258;12.840;2023-06-22T00:16:01;11.25;;;4.70;;
7460;SDS011;6757;52.258;12.840;2023-06-22T00:18:28;12.38;;;5.43;;
7460;SDS011;6757;52.258;12.840;2023-06-22T00:20:55;12.30;;;4.88;;
7460;SDS011;6757;52.258;12.840;2023-06-22T00:23:25;12.45;;;5.10;;
7460;SDS011;6757;52.258;12.840;2023-06-22T00:25:52;13.48;;;5.22;;
7460;SDS011;6757;52.258;12.840;2023-06-22T00:28:19;13.38;;;4.85;;
7460;SDS011;6757;52.258;12.840;2023-06-22T00:30:46;11.52;;;4.95;;
7460;SDS011;6757;52.258;12.840;2023-06-22T00:33:14;15.43;;;5.28;;
7460;SDS011;6757;52.258;12.840;2023-06-22T00:35:41;14.13;;;5.32;;
7460;SDS011;6757;52.258;12.840;2023-06-22T00:38:08;12.73;;;5.47;;
7460;SDS011;6757;52.258;12.840;2023-06-22T00:40:37;13.63;;;5.75;;
7460;SDS011;6757;52.258;12.840;2023-06-22T00:43:04;13.75;;;5.05;;
7460;SDS011;6757;52.258;12.840;2023-06-22T00:45:31;13.88;;;5.40;;
7460;SDS011;6757;52.258;12.840;2023-06-22T00:47:58;13.55;;;5.30;;
7460;SDS011;6757;52.258;12.840;2023-06-22T00:50:27;14.85;;;5.70;;
7460;SDS011;6757;52.258;12.840;2023-06-22T00:52:59;12.75;;;5.10;;
7460;SDS011;6757;52.258;12.840;2023-06-22T00:55:29;11.98;;;4.95;;
7460;SDS011;6757;52.258;12.840;2023-06-22T00:57:57;14.18;;;5.07;;
7460;SDS011;6757;52.258;12.840;2023-06-22T01:00:24;13.88;;;5.03;;
7460;SDS011;6757;52.258;12.840;2023-06-22T01:02:51;15.13;;;5.93;;
7460;SDS011;6757;52.258;12.840;2023-06-22T01:05:19;13.52;;;5.38;;
7460;SDS011;6757;52.258;12.840;2023-06-22T01:07:56;13.80;;;5.55;;
7460;SDS011;6757;52.258;12.840;2023-06-22T01:10:41;13.57;;;5.10;;
7460;SDS011;6757;52.258;12.840;2023-06-22T01:13:14;15.75;;;6.05;;
7460;SDS011;6757;52.258;12.840;2023-06-22T01:15:49;12.35;;;4.70;;
7460;SDS011;6757;52.258;12.840;2023-06-22T01:18:22;13.07;;;5.30;;
7460;SDS011;6757;52.258;12.840;2023-06-22T01:20:53;13.73;;;5.15;;
7460;SDS011;6757;52.258;12.840;2023-06-22T01:23:26;12.38;;;4.93;;
7460;SDS011;6757;52.258;12.840;2023-06-22T01:26:02;12.02;;;4.65;;
7460;SDS011;6757;52.258;12.840;2023-06-22T01:28:45;11.65;;;5.47;;
7460;SDS011;6757;52.258;12.840;2023-06-22T01:31:14;11.68;;;4.85;;
7460;SDS011;6757;52.258;12.840;2023-06-22T01:33:45;12.00;;;4.90;;
7460;SDS011;6757;52.258;12.840;2023-06-22T01:36:16;13.45;;;4.90;;
7460;SDS011;6757;52.258;12.840;2023-06-22T01:38:44;11.88;;;4.80;;
7460;SDS011;6757;52.258;12.840;2023-06-22T01:41:13;12.80;;;5.05;;
7460;SDS011;6757;52.258;12.840;2023-06-22T01:43:43;13.18;;;5.18;;
7460;SDS011;6757;52.258;12.840;2023-06-22T01:46:12;13.20;;;5.03;;
7460;SDS011;6757;52.258;12.840;2023-06-22T01:48:40;14.55;;;5.65;;
7460;SDS011;6757;52.258;12.840;2023-06-22T01:51:07;12.80;;;5.10;;
7460;SDS011;6757;52.258;12.840;2023-06-22T01:53:34;15.32;;;5.65;;
7460;SDS011;6757;52.258;12.840;2023-06-22T01:56:01;12.55;;;5.38;;
7460;SDS011;6757;52.258;12.840;2023-06-22T01:58:29;13.90;;;5.75;;
7460;SDS011;6757;52.258;12.840;2023-06-22T02:01:00;14.02;;;5.45;;
7460;SDS011;6757;52.258;12.840;2023-06-22T02:03:37;12.55;;;5.05;;
7460;SDS011;6757;52.258;12.840;2023-06-22T02:06:08;12.63;;;5.20;;
7460;SDS011;6757;52.258;12.840;2023-06-22T02:08:46;11.38;;;4.57;;
7460;SDS011;6757;52.258;12.840;2023-06-22T02:11:19;13.60;;;5.22;;
7460;SDS011;6757;52.258;12.840;2023-06-22T02:13:47;13.38;;;5.25;;
7460;SDS011;6757;52.258;12.840;2023-06-22T02:16:17;14.20;;;5.10;;
7460;SDS011;6757;52.258;12.840;2023-06-22T02:18:48;12.55;;;4.95;;
7460;SDS011;6757;52.258;12.840;2023-06-22T02:21:16;10.73;;;4.55;;
7460;SDS011;6757;52.258;12.840;2023-06-22T02:23:43;14.02;;;4.88;;
7460;SDS011;6757;52.258;12.840;2023-06-22T02:26:11;11.68;;;4.78;;
7460;SDS011;6757;52.258;12.840;2023-06-22T02:28:38;13.82;;;5.10;;
7460;SDS011;6757;52.258;12.840;2023-06-22T02:31:05;11.70;;;4.57;;
7460;SDS011;6757;52.258;12.840;2023-06-22T02:33:33;13.00;;;4.50;;
7460;SDS011;6757;52.258;12.840;2023-06-22T02:36:00;10.93;;;4.32;;
7460;SDS011;6757;52.258;12.840;2023-06-22T02:38:30;10.38;;;4.07;;
7460;SDS011;6757;52.258;12.840;2023-06-22T02:40:59;12.60;;;4.32;;
7460;SDS011;6757;52.258;12.840;2023-06-22T02:43:26;9.75;;;4.35;;
7460;SDS011;6757;52.258;12.840;2023-06-22T02:45:53;11.10;;;4.65;;
7460;SDS011;6757;52.258;12.840;2023-06-22T02:48:20;11.63;;;4.20;;
7460;SDS011;6757;52.258;12.840;2023-06-22T02:50:49;11.77;;;4.65;;
7460;SDS011;6757;52.258;12.840;2023-06-22T02:53:15;12.50;;;4.35;;
7460;SDS011;6757;52.258;12.840;2023-06-22T02:55:42;12.10;;;5.00;;
7460;SDS011;6757;52.258;12.840;2023-06-22T02:58:09;9.68;;;4.32;;
7460;SDS011;6757;52.258;12.840;2023-06-22T03:00:36;14.57;;;5.47;;
7460;SDS011;6757;52.258;12.840;2023-06-22T03:03:04;12.27;;;4.78;;
7460;SDS011;6757;52.258;12.840;2023-06-22T03:05:31;13.73;;;5.00;;
7460;SDS011;6757;52.258;12.840;2023-06-22T03:08:01;13.15;;;5.50;;
7460;SDS011;6757;52.258;12.840;2023-06-22T03:10:28;10.90;;;4.43;;
7460;SDS011;6757;52.258;12.840;2023-06-22T03:12:55;12.00;;;4.88;;
7460;SDS011;6757;52.258;12.840;2023-06-22T03:15:22;12.15;;;4.63;;
7460;SDS011;6757;52.258;12.840;2023-06-22T03:17:50;11.77;;;4.50;;
7460;SDS011;6757;52.258;12.840;2023-06-22T03:20:17;13.50;;;5.30;;
7460;SDS011;6757;52.258;12.840;2023-06-22T03:22:44;13.75;;;4.97;;
7460;SDS011;6757;52.258;12.840;2023-06-22T03:25:12;11.95;;;4.60;;
7460;SDS011;6757;52.258;12.840;2023-06-22T03:27:39;12.18;;;5.60;;
7460;SDS011;6757;52.258;12.840;2023-06-22T03:30:07;11.25;;;4.55;;
7460;SDS011;6757;52.258;12.840;2023-06-22T03:32:36;13.68;;;4.85;;
7460;SDS011;6757;52.258;12.840;2023-06-22T03:35:04;11.50;;;4.60;;
7460;SDS011;6757;52.258;12.840;2023-06-22T03:37:32;13.02;;;4.60;;
7460;SDS011;6757;52.258;12.840;2023-06-22T03:40:00;12.48;;;4.72;;
7460;SDS011;6757;52.258;12.840;2023-06-22T03:42:33;11.88;;;4.85;;
7460;SDS011;6757;52.258;12.840;2023-06-22T03:45:01;12.60;;;4.55;;
7460;SDS011;6757;52.258;12.840;2023-06-22T03:47:29;12.80;;;4.55;;
7460;SDS011;6757;52.258;12.840;2023-06-22T03:49:56;13.38;;;4.97;;
7460;SDS011;6757;52.258;12.840;2023-06-22T03:52:23;9.43;;;3.67;;
7460;SDS011;6757;52.258;12.840;2023-06-22T03:54:50;11.60;;;4.75;;
7460;SDS011;6757;52.258;12.840;2023-06-22T03:57:17;10.43;;;4.15;;
7460;SDS011;6757;52.258;12.840;2023-06-22T03:59:45;11.35;;;4.28;;
7460;SDS011;6757;52.258;12.840;2023-06-22T04:02:12;9.38;;;3.90;;
7460;SDS011;6757;52.258;12.840;2023-06-22T04:04:39;11.88;;;4.60;;
7460;SDS011;6757;52.258;12.840;2023-06-22T04:07:06;11.23;;;4.05;;
7460;SDS011;6757;52.258;12.840;2023-06-22T04:09:33;10.27;;;3.92;;
7460;SDS011;6757;52.258;12.840;2023-06-22T04:12:01;10.73;;;4.55;;
7460;SDS011;6757;52.258;12.840;2023-06-22T04:14:28;10.50;;;4.32;;
7460;SDS011;6757;52.258;12.840;2023-06-22T04:16:57;12.75;;;4.25;;
7460;SDS011;6757;52.258;12.840;2023-06-22T04:19:24;14.35;;;4.40;;
7460;SDS011;6757;52.258;12.840;2023-06-22T04:21:51;12.10;;;4.78;;
7460;SDS011;6757;52.258;12.840;2023-06-22T04:24:17;12.15;;;5.00;;
7460;SDS011;6757;52.258;12.840;2023-06-22T04:26:44;11.02;;;4.00;;
7460;SDS011;6757;52.258;12.840;2023-06-22T04:29:12;10.50;;;4.10;;
7460;SDS011;6757;52.258;12.840;2023-06-22T04:31:39;9.27;;;4.15;;
7460;SDS011;6757;52.258;12.840;2023-06-22T04:34:07;10.40;;;3.97;;
7460;SDS011;6757;52.258;12.840;2023-06-22T04:36:35;8.90;;;3.70;;
7460;SDS011;6757;52.258;12.840;2023-06-22T04:39:04;10.98;;;4.25;;
7460;SDS011;6757;52.258;12.840;2023-06-22T04:41:34;9.20;;;3.83;;
7460;SDS011;6757;52.258;12.840;2023-06-22T04:44:08;10.20;;;4.03;;
7460;SDS011;6757;52.258;12.840;2023-06-22T04:46:36;11.55;;;4.43;;
7460;SDS011;6757;52.258;12.840;2023-06-22T04:49:04;10.27;;;3.90;;
7460;SDS011;6757;52.258;12.840;2023-06-22T04:51:36;11.00;;;4.63;;
7460;SDS011;6757;52.258;12.840;2023-06-22T04:54:05;12.88;;;4.65;;
7460;SDS011;6757;52.258;12.840;2023-06-22T04:56:33;9.20;;;4.03;;
7460;SDS011;6757;52.258;12.840;2023-06-22T04:59:00;11.80;;;4.18;;
7460;SDS011;6757;52.258;12.840;2023-06-22T05:01:28;11.23;;;4.75;;
7460;SDS011;6757;52.258;12.840;2023-06-22T05:03:56;10.60;;;4.07;;
7460;SDS011;6757;52.258;12.840;2023-06-22T05:06:26;10.25;;;4.28;;
7460;SDS011;6757;52.258;12.840;2023-06-22T05:08:54;11.02;;;4.70;;
7460;SDS011;6757;52.258;12.840;2023-06-22T05:11:23;10.77;;;4.57;;
7460;SDS011;6757;52.258;12.840;2023-06-22T05:13:51;9.98;;;4.53;;
7460;SDS011;6757;52.258;12.840;2023-06-22T05:16:18;10.27;;;4.57;;
7460;SDS011;6757;52.258;12.840;2023-06-22T05:18:48;12.60;;;4.80;;
7460;SDS011;6757;52.258;12.840;2023-06-22T05:21:18;12.05;;;5.53;;
7460;SDS011;6757;52.258;12.840;2023-06-22T05:23:48;11.35;;;4.63;;
7460;SDS011;6757;52.258;12.840;2023-06-22T05:26:16;10.02;;;4.63;;
7460;SDS011;6757;52.258;12.840;2023-06-22T05:28:44;11.32;;;4.82;;
7460;SDS011;6757;52.258;12.840;2023-06-22T05:31:12;12.68;;;4.75;;
7460;SDS011;6757;52.258;12.840;2023-06-22T05:33:39;10.43;;;4.15;;
7460;SDS011;6757;52.258;12.840;2023-06-22T05:36:06;12.35;;;5.25;;
7460;SDS011;6757;52.258;12.840;2023-06-22T05:38:35;11.85;;;4.93;;
7460;SDS011;6757;52.258;12.840;2023-06-22T05:41:02;11.65;;;5.13;;
7460;SDS011;6757;52.258;12.840;2023-06-22T05:43:30;11.15;;;4.47;;
7460;SDS011;6757;52.258;12.840;2023-06-22T05:45:58;13.48;;;5.32;;
7460;SDS011;6757;52.258;12.840;2023-06-22T05:48:26;12.93;;;4.90;;
7460;SDS011;6757;52.258;12.840;2023-06-22T05:50:53;13.80;;;5.65;;
7460;SDS011;6757;52.258;12.840;2023-06-22T05:53:20;10.85;;;4.57;;
7460;SDS011;6757;52.258;12.840;2023-06-22T05:55:47;12.05;;;4.95;;
7460;SDS011;6757;52.258;12.840;2023-06-22T05:58:15;10.85;;;4.85;;
7460;SDS011;6757;52.258;12.840;2023-06-22T06:00:43;12.13;;;5.32;;
7460;SDS011;6757;52.258;12.840;2023-06-22T06:03:11;10.85;;;5.13;;
7460;SDS011;6757;52.258;12.840;2023-06-22T06:05:42;11.73;;;4.65;;
7460;SDS011;6757;52.258;12.840;2023-06-22T06:08:10;10.90;;;4.47;;
7460;SDS011;6757;52.258;12.840;2023-06-22T06:10:37;12.68;;;4.88;;
7460;SDS011;6757;52.258;12.840;2023-06-22T06:13:05;11.77;;;4.78;;
7460;SDS011;6757;52.258;12.840;2023-06-22T06:15:32;10.13;;;4.60;;
7460;SDS011;6757;52.258;12.840;2023-06-22T06:18:01;11.45;;;4.65;;
7460;SDS011;6757;52.258;12.840;2023-06-22T06:20:30;9.85;;;3.95;;
7460;SDS011;6757;52.258;12.840;2023-06-22T06:22:57;11.82;;;4.72;;
7460;SDS011;6757;52.258;12.840;2023-06-22T06:25:24;8.75;;;3.97;;
7460;SDS011;6757;52.258;12.840;2023-06-22T06:27:51;10.65;;;4.47;;
7460;SDS011;6757;52.258;12.840;2023-06-22T06:30:20;10.77;;;4.13;;
7460;SDS011;6757;52.258;12.840;2023-06-22T06:32:47;10.45;;;4.35;;
7460;SDS011;6757;52.258;12.840;2023-06-22T06:35:16;11.50;;;4.80;;
7460;SDS011;6757;52.258;12.840;2023-06-22T06:37:44;11.88;;;5.00;;
7460;SDS011;6757;52.258;12.840;2023-06-22T06:40:13;9.35;;;4.18;;
7460;SDS011;6757;52.258;12.840;2023-06-22T06:42:42;10.23;;;4.13;;
7460;SDS011;6757;52.258;12.840;2023-06-22T06:48:52;10.95;;;4.75;;
7460;SDS011;6757;52.258;12.840;2023-06-22T06:51:20;11.20;;;4.93;;
7460;SDS011;6757;52.258;12.840;2023-06-22T06:53:50;10.40;;;4.18;;
7460;SDS011;6757;52.258;12.840;2023-06-22T06:56:17;10.60;;;4.35;;
7460;SDS011;6757;52.258;12.840;2023-06-22T06:58:44;12.18;;;5.00;;
7460;SDS011;6757;52.258;12.840;2023-06-22T07:01:11;11.80;;;5.57;;
7460;SDS011;6757;52.258;12.840;2023-06-22T07:03:38;11.02;;;4.80;;
7460;SDS011;6757;52.258;12.840;2023-06-22T07:06:05;10.43;;;4.55;;
7460;SDS011;6757;52.258;12.840;2023-06-22T07:08:33;11.30;;;4.60;;
7460;SDS011;6757;52.258;12.840;2023-06-22T07:11:01;10.50;;;5.03;;
7460;SDS011;6757;52.258;12.840;2023-06-22T07:13:28;12.75;;;5.35;;
7460;SDS011;6757;52.258;12.840;2023-06-22T07:15:55;12.00;;;5.25;;
7460;SDS011;6757;52.258;12.840;2023-06-22T07:18:23;10.15;;;4.57;;
7460;SDS011;6757;52.258;12.840;2023-06-22T07:20:51;11.18;;;4.43;;
7460;SDS011;6757;52.258;12.840;2023-06-22T07:23:18;9.77;;;4.25;;
7460;SDS011;6757;52.258;12.840;2023-06-22T07:25:46;11.15;;;4.57;;
7460;SDS011;6757;52.258;12.840;2023-06-22T07:28:14;10.98;;;5.00;;
7460;SDS011;6757;52.258;12.840;2023-06-22T07:30:41;10.77;;;5.00;;
7460;SDS011;6757;52.258;12.840;2023-06-22T07:33:07;11.32;;;4.53;;
7460;SDS011;6757;52.258;12.840;2023-06-22T07:35:34;10.07;;;4.50;;
7460;SDS011;6757;52.258;12.840;2023-06-22T07:38:01;11.60;;;4.97;;
7460;SDS011;6757;52.258;12.840;2023-06-22T07:40:28;11.23;;;4.60;;
7460;SDS011;6757;52.258;12.840;2023-06-22T07:42:57;10.25;;;4.45;;
7460;SDS011;6757;52.258;12.840;2023-06-22T07:45:24;10.13;;;4.30;;
7460;SDS011;6757;52.258;12.840;2023-06-22T07:47:50;10.50;;;4.50;;
7460;SDS011;6757;52.258;12.840;2023-06-22T07:50:17;14.20;;;5.55;;
7460;SDS011;6757;52.258;12.840;2023-06-22T07:52:44;10.73;;;4.80;;
7460;SDS011;6757;52.258;12.840;2023-06-22T07:55:12;10.32;;;4.15;;
7460;SDS011;6757;52.258;12.840;2023-06-22T07:57:39;11.23;;;4.68;;
7460;SDS011;6757;52.258;12.840;2023-06-22T08:00:09;9.98;;;4.47;;
7460;SDS011;6757;52.258;12.840;2023-06-22T08:02:39;8.95;;;4.47;;
7460;SDS011;6757;52.258;12.840;2023-06-22T08:05:07;11.43;;;4.82;;
7460;SDS011;6757;52.258;12.840;2023-06-22T08:07:36;11.57;;;4.75;;
7460;SDS011;6757;52.258;12.840;2023-06-22T08:10:04;10.80;;;4.75;;
7460;SDS011;6757;52.258;12.840;2023-06-22T08:12:32;10.88;;;4.53;;
7460;SDS011;6757;52.258;12.840;2023-06-22T08:14:59;12.25;;;5.10;;
7460;SDS011;6757;52.258;12.840;2023-06-22T08:17:27;10.35;;;4.55;;
7460;SDS011;6757;52.258;12.840;2023-06-22T08:19:54;10.30;;;4.65;;
7460;SDS011;6757;52.258;12.840;2023-06-22T08:22:21;11.52;;;4.85;;
7460;SDS011;6757;52.258;12.840;2023-06-22T08:24:48;11.07;;;5.05;;
7460;SDS011;6757;52.258;12.840;2023-06-22T08:27:15;12.52;;;4.63;;
7460;SDS011;6757;52.258;12.840;2023-06-22T08:29:43;9.38;;;3.85;;
7460;SDS011;6757;52.258;12.840;2023-06-22T08:32:10;9.77;;;3.83;;
7460;SDS011;6757;52.258;12.840;2023-06-22T08:34:39;9.50;;;4.57;;
7460;SDS011;6757;52.258;12.840;2023-06-22T08:37:07;9.77;;;4.22;;
7460;SDS011;6757;52.258;12.840;2023-06-22T08:39:34;9.38;;;4.00;;
7460;SDS011;6757;52.258;12.840;2023-06-22T08:42:01;10.77;;;4.22;;
7460;SDS011;6757;52.258;12.840;2023-06-22T08:44:28;9.32;;;4.10;;
7460;SDS011;6757;52.258;12.840;2023-06-22T08:46:55;10.40;;;4.22;;
7460;SDS011;6757;52.258;12.840;2023-06-22T08:49:22;10.75;;;4.43;;
7460;SDS011;6757;52.258;12.840;2023-06-22T08:51:50;12.20;;;4.70;;
7460;SDS011;6757;52.258;12.840;2023-06-22T08:54:18;9.38;;;4.25;;
7460;SDS011;6757;52.258;12.840;2023-06-22T08:56:45;11.68;;;4.30;;
7460;SDS011;6757;52.258;12.840;2023-06-22T08:59:12;11.23;;;4.72;;
7460;SDS011;6757;52.258;12.840;2023-06-22T09:01:39;12.00;;;4.75;;
7460;SDS011;6757;52.258;12.840;2023-06-22T09:04:10;11.27;;;4.40;;
7460;SDS011;6757;52.258;12.840;2023-06-22T09:06:37;9.15;;;4.28;;
7460;SDS011;6757;52.258;12.840;2023-06-22T09:09:11;11.18;;;4.40;;
7460;SDS011;6757;52.258;12.840;2023-06-22T09:11:39;11.88;;;4.88;;
7460;SDS011;6757;52.258;12.840;2023-06-22T09:14:06;10.63;;;4.68;;
7460;SDS011;6757;52.258;12.840;2023-06-22T09:16:33;9.73;;;4.43;;
7460;SDS011;6757;52.258;12.840;2023-06-22T09:19:00;10.63;;;4.45;;
7460;SDS011;6757;52.258;12.840;2023-06-22T09:21:27;9.35;;;4.35;;
7460;SDS011;6757;52.258;12.840;2023-06-22T09:23:56;9.27;;;4.07;;
7460;SDS011;6757;52.258;12.840;2023-06-22T09:26:24;9.52;;;4.30;;
7460;SDS011;6757;52.258;12.840;2023-06-22T09:28:51;9.52;;;3.92;;
7460;SDS011;6757;52.258;12.840;2023-06-22T09:31:18;11.32;;;4.55;;
7460;SDS011;6757;52.258;12.840;2023-06-22T09:33:50;9.82;;;3.88;;
7460;SDS011;6757;52.258;12.840;2023-06-22T09:36:18;9.05;;;3.67;;
7460;SDS011;6757;52.258;12.840;2023-06-22T09:38:45;9.30;;;4.13;;
7460;SDS011;6757;52.258;12.840;2023-06-22T09:41:12;10.57;;;3.95;;
7460;SDS011;6757;52.258;12.840;2023-06-22T09:43:40;9.45;;;3.88;;
7460;SDS011;6757;52.258;12.840;2023-06-22T09:46:07;10.88;;;4.00;;
7460;SDS011;6757;52.258;12.840;2023-06-22T09:48:34;8.05;;;3.80;;
7460;SDS011;6757;52.258;12.840;2023-06-22T09:51:01;9.20;;;4.55;;
7460;SDS011;6757;52.258;12.840;2023-06-22T09:53:28;8.40;;;4.03;;
7460;SDS011;6757;52.258;12.840;2023-06-22T09:55:55;7.47;;;3.70;;
7460;SDS011;6757;52.258;12.840;2023-06-22T09:58:22;8.60;;;3.78;;
7460;SDS011;6757;52.258;12.840;2023-06-22T10:00:50;9.63;;;4.47;;
7460;SDS011;6757;52.258;12.840;2023-06-22T10:03:18;10.35;;;4.32;;
7460;SDS011;6757;52.258;12.840;2023-06-22T10:05:45;10.75;;;4.53;;
7460;SDS011;6757;52.258;12.840;2023-06-22T10:08:12;8.07;;;3.80;;
7460;SDS011;6757;52.258;12.840;2023-06-22T10:10:38;14.93;;;4.68;;
7460;SDS011;6757;52.258;12.840;2023-06-22T10:13:07;10.25;;;3.90;;
7460;SDS011;6757;52.258;12.840;2023-06-22T10:15:37;10.38;;;4.18;;
7460;SDS011;6757;52.258;12.840;2023-06-22T10:18:05;8.90;;;4.20;;
7460;SDS011;6757;52.258;12.840;2023-06-22T10:20:32;11.05;;;4.95;;
7460;SDS011;6757;52.258;12.840;2023-06-22T10:22:59;9.77;;;4.28;;
7460;SDS011;6757;52.258;12.840;2023-06-22T10:25:26;9.32;;;4.13;;
7460;SDS011;6757;52.258;12.840;2023-06-22T10:27:53;10.48;;;4.65;;
7460;SDS011;6757;52.258;12.840;2023-06-22T10:30:20;10.90;;;4.80;;
7460;SDS011;6757;52.258;12.840;2023-06-22T10:32:47;9.23;;;3.80;;
7460;SDS011;6757;52.258;12.840;2023-06-22T10:35:15;9.43;;;3.90;;
7460;SDS011;6757;52.258;12.840;2023-06-22T10:37:43;10.20;;;4.22;;
7460;SDS011;6757;52.258;12.840;2023-06-22T10:40:11;9.73;;;4.40;;
7460;SDS011;6757;52.258;12.840;2023-06-22T10:42:39;9.32;;;4.32;;
7460;SDS011;6757;52.258;12.840;2023-06-22T10:45:07;9.75;;;4.45;;
7460;SDS011;6757;52.258;12.840;2023-06-22T10:47:35;11.82;;;4.65;;
7460;SDS011;6757;52.258;12.840;2023-06-22T10:50:03;12.60;;;5.25;;
7460;SDS011;6757;52.258;12.840;2023-06-22T10:52:32;9.15;;;4.13;;
7460;SDS011;6757;52.258;12.840;2023-06-22T10:54:59;8.88;;;3.58;;
7460;SDS011;6757;52.258;12.840;2023-06-22T10:57:26;10.25;;;4.53;;
7460;SDS011;6757;52.258;12.840;2023-06-22T10:59:54;9.45;;;4.13;;
7460;SDS011;6757;52.258;12.840;2023-06-22T11:02:21;9.48;;;4.22;;
7460;SDS011;6757;52.258;12.840;2023-06-22T11:04:50;8.77;;;4.00;;
7460;SDS011;6757;52.258;12.840;2023-06-22T11:07:16;10.15;;;4.20;;
7460;SDS011;6757;52.258;12.840;2023-06-22T11:09:45;12.20;;;4.45;;
7460;SDS011;6757;52.258;12.840;2023-06-22T11:12:12;10.02;;;4.15;;
7460;SDS011;6757;52.258;12.840;2023-06-22T11:14:39;10.07;;;4.38;;
7460;SDS011;6757;52.258;12.840;2023-06-22T11:17:06;8.95;;;4.53;;
7460;SDS011;6757;52.258;12.840;2023-06-22T11:19:33;10.32;;;4.53;;
7460;SDS011;6757;52.258;12.840;2023-06-22T11:21:59;10.80;;;4.43;;
7460;SDS011;6757;52.258;12.840;2023-06-22T11:24:26;10.40;;;4.20;;
7460;SDS011;6757;52.258;12.840;2023-06-22T11:26:54;10.88;;;4.38;;
7460;SDS011;6757;52.258;12.840;2023-06-22T11:29:21;10.00;;;4.68;;
7460;SDS011;6757;52.258;12.840;2023-06-22T11:31:48;11.07;;;4.63;;
7460;SDS011;6757;52.258;12.840;2023-06-22T11:34:16;8.98;;;3.97;;
7460;SDS011;6757;52.258;12.840;2023-06-22T11:36:46;9.98;;;4.45;;
7460;SDS011;6757;52.258;12.840;2023-06-22T11:39:13;10.65;;;4.80;;
7460;SDS011;6757;52.258;12.840;2023-06-22T11:41:40;9.20;;;4.53;;
7460;SDS011;6757;52.258;12.840;2023-06-22T11:44:08;10.98;;;4.60;;
7460;SDS011;6757;52.258;12.840;2023-06-22T11:46:35;11.70;;;5.35;;
7460;SDS011;6757;52.258;12.840;2023-06-22T11:49:03;12.40;;;5.57;;
7460;SDS011;6757;52.258;12.840;2023-06-22T11:51:29;11.43;;;5.15;;
7460;SDS011;6757;52.258;12.840;2023-06-22T11:53:57;12.45;;;5.35;;
7460;SDS011;6757;52.258;12.840;2023-06-22T11:56:24;11.68;;;5.10;;
7460;SDS011;6757;52.258;12.840;2023-06-22T11:58:52;12.27;;;5.43;;
7460;SDS011;6757;52.258;12.840;2023-06-22T12:01:21;10.35;;;4.43;;
7460;SDS011;6757;52.258;12.840;2023-06-22T12:03:48;10.52;;;4.50;;
7460;SDS011;6757;52.258;12.840;2023-06-22T12:06:16;10.57;;;4.78;;
7460;SDS011;6757;52.258;12.840;2023-06-22T12:08:43;10.70;;;5.15;;
7460;SDS011;6757;52.258;12.840;2023-06-22T12:11:10;11.18;;;4.80;;
7460;SDS011;6757;52.258;12.840;2023-06-22T12:13:37;11.52;;;4.80;;
7460;SDS011;6757;52.258;12.840;2023-06-22T12:16:04;9.77;;;4.43;;
7460;SDS011;6757;52.258;12.840;2023-06-22T12:18:32;8.63;;;3.92;;
7460;SDS011;6757;52.258;12.840;2023-06-22T12:20:59;10.27;;;3.60;;
7460;SDS011;6757;52.258;12.840;2023-06-22T12:23:26;9.63;;;4.40;;
7460;SDS011;6757;52.258;12.840;2023-06-22T12:25:53;9.55;;;4.47;;
7460;SDS011;6757;52.258;12.840;2023-06-22T12:28:20;10.45;;;4.55;;
7460;SDS011;6757;52.258;12.840;2023-06-22T12:30:48;9.55;;;4.15;;
7460;SDS011;6757;52.258;12.840;2023-06-22T12:33:15;8.65;;;4.00;;
7460;SDS011;6757;52.258;12.840;2023-06-22T12:35:43;7.55;;;3.97;;
7460;SDS011;6757;52.258;12.840;2023-06-22T12:38:13;9.70;;;4.30;;
7460;SDS011;6757;52.258;12.840;2023-06-22T12:40:40;9.57;;;4.03;;
7460;SDS011;6757;52.258;12.840;2023-06-22T12:43:07;8.35;;;4.40;;
7460;SDS011;6757;52.258;12.840;2023-06-22T12:45:34;7.63;;;3.72;;
7460;SDS011;6757;52.258;12.840;2023-06-22T12:48:01;8.57;;;4.00;;
7460;SDS011;6757;52.258;12.840;2023-06-22T12:50:28;8.15;;;3.80;;
7460;SDS011;6757;52.258;12.840;2023-06-22T12:52:56;7.50;;;3.88;;
7460;SDS011;6757;52.258;12.840;2023-06-22T12:55:23;8.40;;;4.03;;
7460;SDS011;6757;52.258;12.840;2023-06-22T12:57:50;7.88;;;3.83;;
7460;SDS011;6757;52.258;12.840;2023-06-22T13:00:17;7.80;;;3.83;;
7460;SDS011;6757;52.258;12.840;2023-06-22T13:02:44;8.55;;;4.10;;
7460;SDS011;6757;52.258;12.840;2023-06-22T13:05:11;9.95;;;4.13;;
7460;SDS011;6757;52.258;12.840;2023-06-22T13:07:38;8.05;;;4.05;;
7460;SDS011;6757;52.258;12.840;2023-06-22T13:10:08;7.68;;;3.95;;
7460;SDS011;6757;52.258;12.840;2023-06-22T13:12:35;8.43;;;3.92;;
7460;SDS011;6757;52.258;12.840;2023-06-22T13:15:03;8.65;;;4.05;;
7460;SDS011;6757;52.258;12.840;2023-06-22T13:17:31;8.18;;;4.15;;
7460;SDS011;6757;52.258;12.840;2023-06-22T13:19:58;7.15;;;4.05;;
7460;SDS011;6757;52.258;12.840;2023-06-22T13:22:28;7.88;;;4.15;;
7460;SDS011;6757;52.258;12.840;2023-06-22T13:24:57;8.48;;;4.30;;
7460;SDS011;6757;52.258;12.840;2023-06-22T13:27:27;9.25;;;4.43;;
7460;SDS011;6757;52.258;12.840;2023-06-22T13:29:53;8.38;;;4.22;;
7460;SDS011;6757;52.258;12.840;2023-06-22T13:32:20;9.38;;;4.28;;
7460;SDS011;6757;52.258;12.840;2023-06-22T13:34:47;8.75;;;4.28;;
7460;SDS011;6757;52.258;12.840;2023-06-22T13:37:14;9.68;;;4.60;;
7460;SDS011;6757;52.258;12.840;2023-06-22T13:39:41;7.60;;;4.05;;
7460;SDS011;6757;52.258;12.840;2023-06-22T13:42:08;8.45;;;4.22;;
7460;SDS011;6757;52.258;12.840;2023-06-22T13:44:36;9.52;;;4.45;;
7460;SDS011;6757;52.258;12.840;2023-06-22T13:47:03;8.73;;;4.43;;
7460;SDS011;6757;52.258;12.840;2023-06-22T13:49:31;9.10;;;4.65;;
7460;SDS011;6757;52.258;12.840;2023-06-22T13:51:58;9.73;;;4.57;;
7460;SDS011;6757;52.258;12.840;2023-06-22T13:54:25;8.63;;;4.40;;
7460;SDS011;6757;52.258;12.840;2023-06-22T13:56:52;9.18;;;4.40;;
7460;SDS011;6757;52.258;12.840;2023-06-22T13:59:19;7.18;;;4.05;;
7460;SDS011;6757;52.258;12.840;2023-06-22T14:01:48;8.63;;;4.38;;
7460;SDS011;6757;52.258;12.840;2023-06-22T14:04:15;8.93;;;4.22;;
7460;SDS011;6757;52.258;12.840;2023-06-22T14:06:42;8.15;;;3.80;;
7460;SDS011;6757;52.258;12.840;2023-06-22T14:09:09;8.48;;;4.60;;
7460;SDS011;6757;52.258;12.840;2023-06-22T14:11:35;7.50;;;4.20;;
7460;SDS011;6757;52.258;12.840;2023-06-22T14:14:02;7.72;;;4.10;;
7460;SDS011;6757;52.258;12.840;2023-06-22T14:16:29;6.88;;;4.03;;
7460;SDS011;6757;52.258;12.840;2023-06-22T14:18:57;8.73;;;4.03;;
7460;SDS011;6757;52.258;12.840;2023-06-22T14:21:25;8.85;;;4.18;;
7460;SDS011;6757;52.258;12.840;2023-06-22T14:23:52;8.80;;;4.38;;
7460;SDS011;6757;52.258;12.840;2023-06-22T14:26:19;8.10;;;4.18;;
7460;SDS011;6757;52.258;12.840;2023-06-22T14:28:47;8.23;;;4.00;;
7460;SDS011;6757;52.258;12.840;2023-06-22T14:31:15;9.23;;;4.35;;
7460;SDS011;6757;52.258;12.840;2023-06-22T14:33:45;9.35;;;4.35;;
7460;SDS011;6757;52.258;12.840;2023-06-22T14:36:14;8.52;;;4.45;;
7460;SDS011;6757;52.258;12.840;2023-06-22T14:38:42;9.82;;;4.60;;
7460;SDS011;6757;52.258;12.840;2023-06-22T14:41:11;9.35;;;4.78;;
7460;SDS011;6757;52.258;12.840;2023-06-22T14:43:43;9.95;;;4.68;;
7460;SDS011;6757;52.258;12.840;2023-06-22T14:46:12;9.18;;;4.28;;
7460;SDS011;6757;52.258;12.840;2023-06-22T14:48:39;8.63;;;4.18;;
7460;SDS011;6757;52.258;12.840;2023-06-22T14:51:05;8.00;;;4.30;;
7460;SDS011;6757;52.258;12.840;2023-06-22T14:53:35;9.82;;;4.63;;
7460;SDS011;6757;52.258;12.840;2023-06-22T14:56:02;9.07;;;4.38;;
7460;SDS011;6757;52.258;12.840;2023-06-22T14:58:30;7.47;;;4.10;;
7460;SDS011;6757;52.258;12.840;2023-06-22T15:00:58;8.68;;;4.13;;